Time;durP1;ratioP1;P1;durP2;ratioP2;P2;SDS_P1;SDS_P2;PMS_P1;PMS_P2;Temp;Humidity;BMP_temperature;BMP_pressure;BME280_temperature;BME280_humidity;BME280_pressure;Samples;Min_cycle;Max_cycle;Signal;HPM_P1;HPM_P2
2022/01/26 00:00:54;;;;;;;16.37;15.53;;;3.50;81.60;;;;;;4897598;29;20506;-80
2022/01/26 00:06:15;;;;;;;15.13;14.43;;;3.50;81.60;;;;;;4897009;29;20408;-79
2022/01/26 00:08:41;;;;;;;16.53;15.73;;;3.50;81.60;;;;;;4866632;29;20483;-79
2022/01/26 00:11:07;;;;;;;16.60;15.80;;;3.50;81.50;;;;;;4899837;29;20050;-79
2022/01/26 00:13:33;;;;;;;16.70;15.70;;;3.50;81.40;;;;;;4946826;29;20490;-79
2022/01/26 00:16:03;;;;;;;15.37;14.67;;;3.50;81.30;;;;;;4948091;28;20031;-79
2022/01/26 00:18:32;;;;;;;16.63;15.63;;;3.50;81.40;;;;;;4966263;28;20043;-79
2022/01/26 00:21:07;;;;;;;16.17;15.37;;;3.40;81.40;;;;;;4959728;28;20035;-79
2022/01/26 00:24:02;;;;;;;15.23;14.43;;;3.40;81.60;;;;;;4949686;29;20039;-79
2022/01/26 00:26:47;;;;;;;15.50;14.80;;;3.30;81.70;;;;;;4956499;28;20042;-79
2022/01/26 00:29:16;;;;;;;16.30;15.50;;;3.30;81.80;;;;;;4945651;29;20054;-79
2022/01/26 00:40:24;;;;;;;15.60;14.77;;;3.40;81.60;;;;;;4962147;28;20046;-79
2022/01/26 00:42:53;;;;;;;16.30;15.50;;;3.40;81.50;;;;;;4962497;28;20043;-79
2022/01/26 00:45:24;;;;;;;16.33;15.53;;;3.40;81.60;;;;;;4939308;28;20027;-79
2022/01/26 00:47:51;;;;;;;16.38;15.65;;;3.40;81.60;;;;;;4945256;29;20038;-79
2022/01/26 00:50:17;;;;;;;17.63;16.60;;;3.40;81.60;;;;;;4950156;29;20051;-79
2022/01/26 00:52:46;;;;;;;16.37;15.43;;;3.40;82.30;;;;;;4940812;29;20470;-79
2022/01/26 00:55:16;;;;;;;16.47;15.67;;;3.40;81.50;;;;;;4942141;29;20039;-79
2022/01/26 00:57:42;;;;;;;15.43;14.73;;;3.40;81.50;;;;;;4942040;29;20035;-79
2022/01/26 01:00:11;;;;;;;15.83;15.13;;;3.40;81.60;;;;;;4963504;28;20042;-78
2022/01/26 01:02:37;;;;;;;16.50;15.63;;;3.40;81.60;;;;;;4921450;29;20062;-78
2022/01/26 01:05:11;;;;;;;16.37;15.57;;;3.40;81.60;;;;;;4953418;29;20035;-79
2022/01/26 01:07:39;;;;;;;16.73;15.90;;;3.40;81.60;;;;;;4949508;29;20038;-79
2022/01/26 01:10:06;;;;;;;15.93;15.23;;;3.40;81.60;;;;;;4958575;28;20052;-79
2022/01/26 01:12:38;;;;;;;15.50;14.80;;;3.40;81.60;;;;;;4945169;29;20031;-79
2022/01/26 01:15:04;;;;;;;16.40;15.40;;;3.40;81.60;;;;;;4951928;28;20031;-78
2022/01/26 01:17:37;;;;;;;15.47;14.77;;;3.40;81.50;;;;;;4960366;28;20112;-78
2022/01/26 01:23:10;;;;;;;15.53;14.83;;;3.20;81.60;;;;;;4941966;28;20050;-78
2022/01/26 01:26:06;;;;;;;16.73;15.93;;;3.20;81.80;;;;;;4958473;28;20031;-79
2022/01/26 01:30:57;;;;;;;16.53;15.73;;;3.20;81.90;;;;;;4962033;28;20543;-79
2022/01/26 01:33:31;;;;;;;16.70;15.90;;;3.20;81.80;;;;;;4949356;29;20047;-79
2022/01/26 01:35:58;;;;;;;15.90;15.20;;;3.20;81.80;;;;;;4966802;28;20039;-79
2022/01/26 01:38:28;;;;;;;15.93;15.17;;;3.20;81.80;;;;;;4959224;28;20097;-79
2022/01/26 01:40:54;;;;;;;15.80;15.00;;;3.20;81.80;;;;;;4953172;29;20035;-79
2022/01/26 01:43:21;;;;;;;15.70;15.00;;;3.10;81.90;;;;;;4950575;29;20047;-79
2022/01/26 01:45:49;;;;;;;16.90;16.00;;;3.20;82.00;;;;;;4946474;28;20031;-79
2022/01/26 01:48:22;;;;;;;15.40;14.70;;;3.20;81.90;;;;;;4947084;29;20038;-78
2022/01/26 01:50:50;;;;;;;16.87;15.77;;;3.20;81.90;;;;;;4954720;28;20055;-79
2022/01/26 01:53:18;;;;;;;15.53;14.83;;;3.20;81.80;;;;;;4951323;29;20075;-79
2022/01/26 01:55:49;;;;;;;16.67;15.87;;;3.20;81.80;;;;;;4953079;29;20042;-78
2022/01/26 01:58:17;;;;;;;16.30;15.53;;;3.20;81.80;;;;;;4942558;29;20406;-79
2022/01/26 02:00:43;;;;;;;15.37;14.67;;;3.10;81.80;;;;;;4945790;28;20413;-79
2022/01/26 02:03:09;;;;;;;15.93;15.23;;;3.10;81.90;;;;;;4944337;29;20027;-79
2022/01/26 02:05:35;;;;;;;16.00;15.20;;;3.10;81.90;;;;;;4952864;28;20398;-79
2022/01/26 02:08:01;;;;;;;15.13;14.33;;;3.00;82.00;;;;;;4953499;29;20063;-78
2022/01/26 02:10:29;;;;;;;15.83;15.03;;;3.00;82.10;;;;;;4953135;29;20506;-78
2022/01/26 02:12:58;;;;;;;15.60;14.80;;;3.00;82.10;;;;;;4962231;28;20048;-78
2022/01/26 02:15:31;;;;;;;15.20;14.50;;;3.00;82.10;;;;;;4944180;28;20031;-78
2022/01/26 02:20:58;;;;;;;15.93;15.23;;;3.10;82.00;;;;;;4953563;29;20042;-78
2022/01/26 02:51:11;;;;;;;15.80;15.10;;;2.80;82.20;;;;;;4949458;28;20054;-78
2022/01/26 03:01:39;;;;;;;17.37;16.57;;;2.80;82.50;;;;;;4957941;28;20032;-78
2022/01/26 03:04:18;;;;;;;15.07;14.17;;;2.70;82.30;;;;;;4956172;28;20502;-78
2022/01/26 03:07:04;;;;;;;15.20;14.50;;;2.70;82.50;;;;;;4947669;29;20088;-78
2022/01/26 03:09:59;;;;;;;17.20;15.97;;;2.70;82.60;;;;;;4949558;29;20035;-78
2022/01/26 03:12:29;;;;;;;17.53;16.73;;;2.70;82.60;;;;;;4954376;28;20048;-78
2022/01/26 03:15:00;;;;;;;15.70;15.00;;;2.70;82.60;;;;;;4955298;29;20059;-78
2022/01/26 03:20:05;;;;;;;16.73;15.93;;;2.80;82.50;;;;;;4960308;28;20058;-78
2022/01/26 03:33:35;;;;;;;16.13;15.40;;;2.70;82.60;;;;;;4959794;28;20386;-78
2022/01/26 03:36:00;;;;;;;16.50;15.70;;;2.70;82.60;;;;;;4941776;29;20039;-78
2022/01/26 03:38:39;;;;;;;15.70;15.00;;;2.70;82.60;;;;;;4943466;29;20047;-78
2022/01/26 03:43:37;;;;;;;15.90;15.20;;;2.70;82.60;;;;;;4971461;28;20034;-78
2022/01/26 03:46:03;;;;;;;17.30;16.23;;;2.70;82.50;;;;;;4953519;28;20044;-78
2022/01/26 03:48:29;;;;;;;17.27;16.17;;;2.70;82.60;;;;;;4953237;29;20027;-78
2022/01/26 03:50:55;;;;;;;17.43;16.53;;;2.70;82.60;;;;;;4969392;28;20043;-78
2022/01/26 03:53:21;;;;;;;16.33;15.53;;;2.70;82.50;;;;;;4934590;29;20046;-78
2022/01/26 03:55:47;;;;;;;16.73;15.90;;;2.70;82.50;;;;;;4942719;29;20390;-78
2022/01/26 03:58:13;;;;;;;16.07;15.27;;;2.70;82.50;;;;;;4952993;29;20034;-78
2022/01/26 04:00:39;;;;;;;16.40;15.60;;;2.70;82.50;;;;;;4964660;28;20035;-78
2022/01/26 04:03:05;;;;;;;15.50;14.73;;;2.70;82.50;;;;;;4942187;29;20035;-78
2022/01/26 04:05:31;;;;;;;16.43;15.60;;;2.70;82.40;;;;;;4946416;29;20031;-78
2022/01/26 04:08:04;;;;;;;15.63;14.90;;;2.70;82.50;;;;;;4955504;28;20035;-78
2022/01/26 04:10:54;;;;;;;15.83;15.03;;;2.70;82.50;;;;;;4953737;29;20039;-78
2022/01/26 04:13:16;;;;;;;16.17;15.40;;;2.70;82.40;;;;;;4956386;28;20604;-78
2022/01/26 04:15:42;;;;;;;17.47;16.27;;;2.70;82.40;;;;;;4947455;28;20478;-78
2022/01/26 04:18:13;;;;;;;16.57;15.77;;;2.70;82.40;;;;;;4953346;29;20019;-78
2022/01/26 04:20:43;;;;;;;15.35;14.65;;;2.70;82.50;;;;;;4952180;28;20047;-78
2022/01/26 04:25:37;;;;;;;15.20;14.50;;;2.60;82.50;;;;;;4955806;28;20027;-78
2022/01/26 04:28:08;;;;;;;16.13;15.30;;;2.60;82.50;;;;;;4953087;28;20403;-78
2022/01/26 04:30:34;;;;;;;16.63;15.63;;;2.60;82.60;;;;;;4946879;28;20054;-78
2022/01/26 04:33:04;;;;;;;15.13;14.43;;;2.60;82.70;;;;;;4954476;29;20397;-78
2022/01/26 04:35:30;;;;;;;16.40;15.50;;;2.60;82.70;;;;;;4950070;29;20055;-78
2022/01/26 04:40:38;;;;;;;16.37;15.27;;;2.60;82.50;;;;;;4943128;28;20059;-78
2022/01/26 04:43:11;;;;;;;15.67;14.97;;;2.60;82.60;;;;;;4943041;29;20044;-78
2022/01/26 04:45:37;;;;;;;16.07;14.93;;;2.60;82.60;;;;;;4946580;28;20043;-78
2022/01/26 04:48:04;;;;;;;16.00;15.00;;;2.60;82.50;;;;;;4949594;29;20035;-78
2022/01/26 04:50:30;;;;;;;15.87;15.13;;;2.60;82.50;;;;;;4944157;29;20070;-78
2022/01/26 04:52:56;;;;;;;15.53;14.83;;;2.60;82.50;;;;;;4951764;29;20035;-78
2022/01/26 04:55:22;;;;;;;16.20;15.40;;;2.60;82.60;;;;;;4948535;29;20047;-77
2022/01/26 04:57:49;;;;;;;15.53;14.83;;;2.50;82.50;;;;;;4952699;28;20031;-77
2022/01/26 05:00:15;;;;;;;16.23;15.33;;;2.50;82.60;;;;;;4951421;28;20035;-79
2022/01/26 05:02:41;;;;;;;15.37;14.67;;;2.40;82.70;;;;;;4957711;28;20471;-77
2022/01/26 05:05:07;;;;;;;15.50;14.80;;;2.40;82.70;;;;;;4953088;29;20035;-79
2022/01/26 05:07:33;;;;;;;15.03;14.33;;;2.40;82.90;;;;;;4951205;28;20046;-78
2022/01/26 05:10:02;;;;;;;15.30;14.60;;;2.40;82.90;;;;;;4938772;29;20058;-79
2022/01/26 05:12:28;;;;;;;15.07;14.37;;;2.40;83.00;;;;;;4948709;29;20467;-79
2022/01/26 05:14:54;;;;;;;15.07;14.37;;;2.30;82.80;;;;;;4935535;29;20054;-79
2022/01/26 05:17:22;;;;;;;16.53;15.73;;;2.30;83.00;;;;;;4940506;28;20487;-78
2022/01/26 05:19:53;;;;;;;15.50;14.80;;;2.30;82.90;;;;;;4950074;28;20031;-79
2022/01/26 05:22:20;;;;;;;16.47;15.67;;;2.30;82.90;;;;;;4950047;29;20039;-78
2022/01/26 05:24:47;;;;;;;15.53;14.83;;;2.30;82.90;;;;;;4952280;28;20032;-78
2022/01/26 05:27:14;;;;;;;16.53;15.73;;;2.30;83.10;;;;;;4946659;28;20043;-78
2022/01/26 05:29:40;;;;;;;16.00;15.30;;;2.30;83.00;;;;;;4949744;29;20039;-77
2022/01/26 05:32:06;;;;;;;16.50;15.70;;;2.30;82.90;;;;;;4953622;28;20383;-78
2022/01/26 05:34:32;;;;;;;16.30;15.50;;;2.30;82.90;;;;;;4950262;29;20047;-78
2022/01/26 05:36:58;;;;;;;15.00;14.30;;;2.40;82.90;;;;;;4933415;29;20027;-78
2022/01/26 05:39:26;;;;;;;15.90;15.10;;;2.40;82.70;;;;;;4944344;29;20042;-79
2022/01/26 05:41:52;;;;;;;16.27;15.47;;;2.40;82.60;;;;;;4948092;29;20035;-80
2022/01/26 05:44:18;;;;;;;15.87;15.00;;;2.40;82.70;;;;;;4936172;28;20478;-79
2022/01/26 05:46:48;;;;;;;15.87;15.00;;;2.40;82.70;;;;;;4949072;28;20042;-79
2022/01/26 05:49:16;;;;;;;16.03;15.20;;;2.30;82.80;;;;;;4950502;29;20497;-79
2022/01/26 05:51:45;;;;;;;16.17;15.27;;;2.30;82.80;;;;;;4946741;28;20050;-79
2022/01/26 05:54:12;;;;;;;15.47;14.67;;;2.40;82.80;;;;;;4948224;29;20426;-79
2022/01/26 05:56:38;;;;;;;15.93;15.13;;;2.30;82.80;;;;;;4916645;29;20043;-78
2022/01/26 05:59:04;;;;;;;15.53;14.83;;;2.30;82.80;;;;;;4963352;28;20058;-78
2022/01/26 06:01:30;;;;;;;15.70;15.00;;;2.30;82.80;;;;;;4962242;28;20406;-78
2022/01/26 06:03:56;;;;;;;15.47;14.77;;;2.20;82.70;;;;;;4951488;29;20367;-78
2022/01/26 06:06:22;;;;;;;15.13;14.43;;;2.20;82.80;;;;;;4927770;29;20043;-79
2022/01/26 06:08:48;;;;;;;16.00;15.30;;;2.10;82.80;;;;;;4949993;29;20398;-79
2022/01/26 06:11:15;;;;;;;15.90;15.20;;;2.10;83.00;;;;;;4950320;29;20050;-79
2022/01/26 06:13:41;;;;;;;17.00;16.20;;;2.10;83.10;;;;;;4946119;29;20398;-79
2022/01/26 06:16:07;;;;;;;16.30;15.60;;;2.10;83.10;;;;;;4948660;28;20043;-79
2022/01/26 06:18:33;;;;;;;15.70;15.00;;;2.10;83.10;;;;;;4938441;29;20043;-79
2022/01/26 06:20:59;;;;;;;16.60;15.80;;;2.10;83.00;;;;;;4941538;29;20031;-79
2022/01/26 06:23:26;;;;;;;15.93;15.07;;;2.10;82.90;;;;;;4953587;29;20046;-79
2022/01/26 06:25:57;;;;;;;16.13;15.43;;;2.10;82.90;;;;;;4951068;28;20058;-79
2022/01/26 06:28:25;;;;;;;15.95;15.25;;;2.10;82.90;;;;;;4955584;28;20035;-79
2022/01/26 06:30:59;;;;;;;15.73;15.03;;;2.20;82.90;;;;;;4922261;29;20046;-79
2022/01/26 06:33:26;;;;;;;15.70;15.00;;;2.20;82.90;;;;;;4968043;28;20031;-79
2022/01/26 06:35:53;;;;;;;16.53;15.67;;;2.10;82.80;;;;;;4955019;29;20051;-79
2022/01/26 06:38:19;;;;;;;15.50;14.80;;;2.10;82.80;;;;;;4935259;29;20042;-79
2022/01/26 06:40:45;;;;;;;16.37;15.57;;;2.10;82.90;;;;;;4955234;29;20040;-79
2022/01/26 06:43:14;;;;;;;15.50;14.80;;;2.10;82.90;;;;;;4938937;29;20034;-79
2022/01/26 06:45:47;;;;;;;16.10;14.90;;;2.00;82.90;;;;;;4968939;28;20109;-79
2022/01/26 06:49:28;;;;;;;15.43;14.73;;;2.00;83.00;;;;;;4954426;29;20405;-79
2022/01/26 06:51:00;;;;;;;15.90;15.20;;;2.00;83.00;;;;;;4960560;28;20410;-79
2022/01/26 06:53:26;;;;;;;16.10;15.40;;;2.00;83.00;;;;;;4939438;29;20031;-79
2022/01/26 06:55:53;;;;;;;15.03;14.33;;;2.00;83.00;;;;;;4953899;29;20031;-79
2022/01/26 06:58:19;;;;;;;15.13;14.43;;;2.00;83.00;;;;;;4954411;29;20027;-79
2022/01/26 07:00:45;;;;;;;15.73;15.03;;;2.00;83.00;;;;;;4938130;29;20505;-79
2022/01/26 07:03:11;;;;;;;15.03;14.33;;;1.90;82.90;;;;;;4966476;28;20058;-79
2022/01/26 07:05:37;;;;;;;15.13;14.43;;;2.00;83.10;;;;;;4969217;28;20035;-79
2022/01/26 07:08:03;;;;;;;16.03;15.13;;;2.00;83.10;;;;;;4954485;29;20058;-78
2022/01/26 07:10:30;;;;;;;15.80;15.10;;;2.00;83.00;;;;;;4944177;29;20052;-78
2022/01/26 07:12:56;;;;;;;16.57;15.67;;;2.00;83.00;;;;;;4945352;29;20035;-77
2022/01/26 07:23:31;;;;;;;15.23;14.53;;;2.00;82.90;;;;;;4966536;28;20549;-77
2022/01/26 07:25:57;;;;;;;15.30;14.60;;;2.00;83.00;;;;;;4956717;28;20035;-77
2022/01/26 07:28:23;;;;;;;15.30;14.60;;;2.00;82.80;;;;;;4939596;29;20486;-77
2022/01/26 07:30:50;;;;;;;16.07;15.27;;;2.00;82.80;;;;;;4952611;28;20039;-77
2022/01/26 07:33:16;;;;;;;16.43;15.63;;;2.00;82.90;;;;;;4952835;29;20050;-78
2022/01/26 07:35:42;;;;;;;16.03;15.33;;;2.00;82.90;;;;;;4959628;28;20031;-78
2022/01/26 07:38:09;;;;;;;15.60;14.90;;;2.00;82.90;;;;;;4918500;29;20039;-78
2022/01/26 07:40:35;;;;;;;16.20;15.47;;;2.00;82.90;;;;;;4948818;29;20032;-78
2022/01/26 07:43:01;;;;;;;15.37;14.67;;;2.00;83.00;;;;;;4949039;29;20502;-78
2022/01/26 07:45:27;;;;;;;15.80;15.10;;;2.00;82.90;;;;;;4952293;28;20031;-79
2022/01/26 07:47:55;;;;;;;16.27;15.47;;;2.00;82.80;;;;;;4942229;28;20027;-81
2022/01/26 07:50:21;;;;;;;15.90;15.10;;;2.10;82.80;;;;;;4967112;28;20047;-79
2022/01/26 07:52:48;;;;;;;15.60;14.90;;;2.10;82.70;;;;;;4952440;29;20038;-81
2022/01/26 07:55:17;;;;;;;15.97;15.27;;;2.10;82.80;;;;;;4932205;29;20044;-81
2022/01/26 07:57:44;;;;;;;17.10;16.00;;;2.20;82.80;;;;;;4944873;29;20500;-80
2022/01/26 08:00:11;;;;;;;16.10;15.40;;;2.20;82.60;;;;;;4957661;28;20035;-79
2022/01/26 08:02:37;;;;;;;15.80;15.10;;;2.20;82.60;;;;;;4954184;28;24541;-80
2022/01/26 08:05:04;;;;;;;16.57;15.77;;;2.10;82.50;;;;;;4954361;29;20035;-80
2022/01/26 08:07:30;;;;;;;16.13;15.43;;;2.10;82.60;;;;;;4950647;29;20039;-80
2022/01/26 08:09:56;;;;;;;17.10;16.23;;;2.00;82.60;;;;;;4950505;29;20035;-80
2022/01/26 08:12:22;;;;;;;16.00;15.20;;;2.00;82.80;;;;;;4951252;29;20398;-81
2022/01/26 08:14:48;;;;;;;16.07;15.37;;;2.00;82.80;;;;;;4950622;29;20028;-81
2022/01/26 08:17:15;;;;;;;16.37;15.57;;;2.00;82.80;;;;;;4952547;28;20406;-80
2022/01/26 08:19:41;;;;;;;15.60;14.90;;;2.00;82.80;;;;;;4951197;29;20024;-79
2022/01/26 08:22:07;;;;;;;17.00;16.10;;;2.10;82.90;;;;;;4951349;29;20034;-81
2022/01/26 08:24:34;;;;;;;16.60;15.70;;;2.10;82.80;;;;;;4948380;28;20050;-80
2022/01/26 08:27:06;;;;;;;17.33;16.43;;;2.10;82.70;;;;;;4955341;28;20040;-82
2022/01/26 08:29:40;;;;;;;16.57;15.77;;;2.20;82.90;;;;;;4950571;29;20019;-80
2022/01/26 08:32:07;;;;;;;15.90;15.20;;;2.20;82.80;;;;;;4952854;28;20051;-81
2022/01/26 08:34:33;;;;;;;18.23;17.13;;;2.20;82.60;;;;;;4949547;29;20035;-83
2022/01/26 08:36:59;;;;;;;17.40;16.40;;;2.20;82.60;;;;;;4951391;28;20028;-83
2022/01/26 08:39:25;;;;;;;18.27;17.13;;;2.20;82.60;;;;;;4951232;29;20042;-80
2022/01/26 08:41:51;;;;;;;16.57;15.77;;;2.20;82.60;;;;;;4928706;29;20054;-81
2022/01/26 08:44:17;;;;;;;16.20;15.50;;;2.20;82.60;;;;;;4950530;29;20035;-81
2022/01/26 08:46:43;;;;;;;17.07;16.07;;;2.20;82.60;;;;;;4950030;28;20042;-80
2022/01/26 08:49:10;;;;;;;15.80;15.10;;;2.10;83.40;;;;;;4934239;29;20039;-79
2022/01/26 08:51:36;;;;;;;17.30;16.30;;;2.10;82.80;;;;;;4951696;28;20050;-85
2022/01/26 08:54:02;;;;;;;17.07;16.17;;;2.10;82.80;;;;;;4934743;29;20035;-84
2022/01/26 08:56:28;;;;;;;16.90;16.10;;;2.10;82.90;;;;;;4950072;29;20430;-82
2022/01/26 08:58:54;;;;;;;16.10;15.33;;;2.10;82.90;;;;;;4947713;29;20039;-80
2022/01/26 09:01:21;;;;;;;16.67;15.73;;;2.10;82.80;;;;;;4948892;28;20040;-78
2022/01/26 09:03:47;;;;;;;16.40;15.60;;;2.20;82.80;;;;;;4962787;28;20035;-79
2022/01/26 09:06:13;;;;;;;16.60;15.70;;;2.20;82.80;;;;;;4960130;28;20042;-78
2022/01/26 09:08:40;;;;;;;15.93;15.23;;;2.30;82.70;;;;;;4943566;28;20037;-79
2022/01/26 09:11:07;;;;;;;16.10;15.20;;;2.30;82.60;;;;;;4947931;29;20051;-81
2022/01/26 09:13:35;;;;;;;17.57;16.67;;;2.20;82.50;;;;;;4950141;29;20054;-80
2022/01/26 09:16:03;;;;;;;16.50;15.67;;;2.10;82.70;;;;;;4948995;28;20035;-81
2022/01/26 09:18:50;;;;;;;17.77;16.87;;;2.10;82.80;;;;;;4948656;29;20473;-81
2022/01/26 09:21:17;;;;;;;18.17;17.07;;;2.10;82.80;;;;;;4961299;28;20031;-81
2022/01/26 09:23:43;;;;;;;17.80;16.90;;;2.10;82.80;;;;;;4950939;29;20042;-82
2022/01/26 09:26:09;;;;;;;16.77;15.97;;;2.10;82.90;;;;;;4955252;28;20385;-81
2022/01/26 09:28:37;;;;;;;16.03;15.33;;;2.10;82.90;;;;;;4950408;29;20117;-81
2022/01/26 09:31:03;;;;;;;16.17;15.47;;;2.00;82.90;;;;;;4962323;28;20047;-81
2022/01/26 09:33:29;;;;;;;17.17;16.27;;;2.00;83.00;;;;;;4947177;29;20065;-81
2022/01/26 09:35:55;;;;;;;16.80;15.90;;;2.00;83.00;;;;;;4935641;29;20036;-81
2022/01/26 09:38:21;;;;;;;15.07;14.37;;;2.00;83.00;;;;;;4962803;28;20402;-81
2022/01/26 09:40:48;;;;;;;15.93;15.23;;;2.10;83.10;;;;;;4933063;29;20051;-81
2022/01/26 09:43:16;;;;;;;15.67;14.97;;;2.10;83.00;;;;;;4944441;29;20027;-80
2022/01/26 09:45:42;;;;;;;16.33;15.43;;;2.10;83.00;;;;;;4945181;28;20482;-81
2022/01/26 09:48:10;;;;;;;15.67;14.97;;;2.00;83.00;;;;;;4946040;28;20569;-84
2022/01/26 09:50:36;;;;;;;18.70;16.97;;;2.10;83.00;;;;;;4958595;28;20046;-84
2022/01/26 09:53:03;;;;;;;16.03;15.33;;;2.10;83.00;;;;;;4954454;28;20398;-83
2022/01/26 09:55:29;;;;;;;16.13;15.40;;;2.10;82.90;;;;;;4944938;29;20023;-81
2022/01/26 09:57:58;;;;;;;17.47;16.33;;;2.20;82.80;;;;;;4948894;28;20015;-81
2022/01/26 10:00:26;;;;;;;16.37;15.57;;;2.20;82.80;;;;;;4944637;28;20051;-81
2022/01/26 10:02:59;;;;;;;16.10;15.30;;;2.10;83.40;;;;;;4947969;29;20040;-81
2022/01/26 10:05:25;;;;;;;15.17;14.47;;;2.00;82.80;;;;;;4950534;28;20035;-82
2022/01/26 10:18:39;;;;;;;16.87;16.07;;;2.00;83.10;;;;;;4937788;29;20039;-80
2022/01/26 10:21:08;;;;;;;14.67;13.97;;;2.00;83.00;;;;;;4948896;28;20055;-81
2022/01/26 10:23:37;;;;;;;14.67;13.97;;;2.00;82.90;;;;;;4939892;28;20430;-80
2022/01/26 10:26:04;;;;;;;15.47;14.77;;;2.00;83.00;;;;;;4953335;28;20039;-80
2022/01/26 10:28:46;;;;;;;15.30;14.60;;;2.10;82.90;;;;;;4950568;28;20394;-80
2022/01/26 10:31:31;;;;;;;15.63;14.93;;;2.10;82.80;;;;;;4929274;29;20048;-80
2022/01/26 10:33:59;;;;;;;16.03;14.93;;;2.10;82.80;;;;;;4946773;29;20027;-80
2022/01/26 10:36:26;;;;;;;15.97;14.97;;;2.00;82.80;;;;;;4929998;29;20043;-82
2022/01/26 10:39:00;;;;;;;16.40;15.60;;;2.10;83.10;;;;;;4936174;29;20036;-83
2022/01/26 10:41:26;;;;;;;14.90;14.20;;;2.30;83.40;;;;;;4944388;29;20039;-76
2022/01/26 10:43:55;;;;;;;14.40;13.70;;;2.60;83.50;;;;;;4948855;28;20301;-76
2022/01/26 10:46:41;;;;;;;15.80;15.10;;;3.00;83.20;;;;;;4949077;28;20050;-76
2022/01/26 10:49:42;;;;;;;15.30;14.60;;;3.40;83.00;;;;;;4944565;29;20498;-76
2022/01/26 10:52:22;;;;;;;16.57;15.73;;;3.70;82.50;;;;;;4945434;29;20502;-77
2022/01/26 10:54:51;;;;;;;16.33;15.57;;;3.90;82.30;;;;;;4962442;28;20401;-77
2022/01/26 10:57:18;;;;;;;17.60;16.60;;;4.10;82.20;;;;;;4949731;28;20036;-81
2022/01/26 10:59:48;;;;;;;17.00;16.20;;;4.30;81.80;;;;;;4945952;28;20557;-75
2022/01/26 11:02:19;;;;;;;16.42;15.70;;;4.20;81.90;;;;;;4954414;28;20517;-78
2022/01/26 11:04:45;;;;;;;15.65;14.95;;;4.40;82.20;;;;;;4955368;29;20505;-77
2022/01/26 11:07:12;;;;;;;17.00;16.10;;;4.50;82.30;;;;;;4952699;29;20035;-76
2022/01/26 11:09:44;;;;;;;17.00;16.20;;;4.70;82.30;;;;;;4951897;29;20050;-75
2022/01/26 11:12:11;;;;;;;18.90;18.00;;;4.80;82.10;;;;;;4952890;29;20039;-76
2022/01/26 11:14:49;;;;;;;17.40;16.60;;;5.00;82.20;;;;;;4955764;28;20033;-75
2022/01/26 11:17:26;;;;;;;17.30;16.43;;;5.20;81.90;;;;;;4964337;28;20038;-75
2022/01/26 11:19:54;;;;;;;17.80;16.83;;;5.30;81.80;;;;;;4969226;28;20041;-75
2022/01/26 11:22:26;;;;;;;18.77;17.67;;;5.40;81.80;;;;;;4953815;28;20023;-75
2022/01/26 11:24:52;;;;;;;16.87;16.07;;;5.60;81.70;;;;;;4952600;29;20030;-77
2022/01/26 11:27:18;;;;;;;16.30;15.50;;;5.70;81.40;;;;;;4950356;29;20038;-77
2022/01/26 11:29:48;;;;;;;16.47;15.67;;;5.90;81.20;;;;;;4950439;29;20418;-76
2022/01/26 11:32:21;;;;;;;17.80;16.80;;;6.00;81.10;;;;;;4953233;28;20437;-76
2022/01/26 11:34:53;;;;;;;18.37;17.47;;;6.00;80.80;;;;;;4968747;28;20034;-76
2022/01/26 11:45:34;;;;;;;17.30;16.50;;;5.50;80.10;;;;;;4960314;28;20047;-79
2022/01/26 11:48:11;;;;;;;17.90;17.10;;;5.00;80.30;;;;;;4935660;29;20039;-77
2022/01/26 11:50:42;;;;;;;18.60;17.60;;;4.60;81.10;;;;;;4950664;29;20054;-77
2022/01/26 11:53:15;;;;;;;18.35;17.48;;;4.30;81.70;;;;;;4965902;28;20074;-79
2022/01/26 11:55:46;;;;;;;16.47;15.67;;;4.10;82.20;;;;;;4970486;28;20027;-79
2022/01/26 11:58:18;;;;;;;;;;;3.90;82.50;;;;;;4954246;28;20031;-81
2022/01/26 12:01:09;;;;;;;15.52;14.82;;;3.80;82.60;;;;;;4950047;28;19921;-80
2022/01/26 12:03:42;;;;;;;;;;;3.60;82.50;;;;;;4950543;29;20035;-80
2022/01/26 12:06:17;;;;;;;15.03;14.30;;;3.50;82.80;;;;;;4950895;29;19910;-80
2022/01/26 12:08:44;;;;;;;16.17;15.47;;;3.30;82.60;;;;;;4949823;29;20039;-79
2022/01/26 12:11:11;;;;;;;15.50;14.80;;;3.20;82.70;;;;;;4918498;29;20375;-80
2022/01/26 12:13:38;;;;;;;15.57;14.87;;;3.20;82.60;;;;;;4966908;28;20031;-80
2022/01/26 12:16:09;;;;;;;14.50;13.80;;;3.10;82.70;;;;;;4951051;28;20047;-79
2022/01/26 12:37:32;;;;;;;17.43;16.53;;;2.90;82.70;;;;;;4967474;28;20031;-80
2022/01/26 12:45:22;;;;;;;16.47;15.73;;;3.00;82.50;;;;;;4953044;28;20031;-79
2022/01/26 12:47:50;;;;;;;14.60;13.90;;;3.00;82.20;;;;;;4948323;29;20023;-78
2022/01/26 12:50:16;;;;;;;15.87;14.97;;;3.00;82.20;;;;;;4952262;29;20046;-79
2022/01/26 12:52:49;;;;;;;16.10;15.40;;;3.00;82.10;;;;;;4951816;29;20051;-79
2022/01/26 12:55:26;;;;;;;16.80;15.50;;;3.00;82.20;;;;;;4967796;28;20023;-79
2022/01/26 12:57:54;;;;;;;15.10;14.40;;;2.90;82.10;;;;;;4952816;28;20047;-79
2022/01/26 13:00:21;;;;;;;17.23;16.33;;;2.90;82.10;;;;;;4967125;28;20034;-79
2022/01/26 13:02:47;;;;;;;15.07;14.37;;;2.90;82.10;;;;;;4941144;29;20024;-79
2022/01/26 13:05:16;;;;;;;14.53;13.83;;;2.80;82.20;;;;;;4953536;29;20046;-79
2022/01/26 13:07:43;;;;;;;15.70;14.90;;;2.70;82.20;;;;;;4953766;29;20035;-79
2022/01/26 13:10:16;;;;;;;15.53;14.83;;;2.70;82.30;;;;;;4945752;29;20043;-79
2022/01/26 13:12:42;;;;;;;15.07;14.33;;;2.70;82.40;;;;;;4943776;29;20035;-78
2022/01/26 13:17:55;;;;;;;15.27;14.57;;;2.60;82.40;;;;;;4954781;28;20035;-78
2022/01/26 13:20:39;;;;;;;15.70;14.98;;;2.70;82.50;;;;;;4953094;29;20035;-78
2022/01/26 13:42:18;;;;;;;17.47;16.43;;;2.50;82.30;;;;;;4939031;29;20066;-78
2022/01/26 14:00:15;;;;;;;15.80;15.10;;;2.60;82.20;;;;;;4956357;28;20038;-79
2022/01/26 14:02:41;;;;;;;15.50;14.70;;;2.70;82.20;;;;;;4951678;29;20043;-79
2022/01/26 14:05:08;;;;;;;16.40;15.60;;;2.70;82.20;;;;;;4950265;29;20027;-79
2022/01/26 14:07:34;;;;;;;14.97;14.27;;;2.70;82.10;;;;;;4933615;29;20035;-78
2022/01/26 14:10:01;;;;;;;15.30;14.60;;;2.60;82.20;;;;;;4932202;29;20503;-78
2022/01/26 14:12:31;;;;;;;15.87;15.07;;;2.60;82.30;;;;;;4943604;29;20039;-79
2022/01/26 14:14:58;;;;;;;15.75;15.05;;;2.60;82.30;;;;;;4950842;29;20398;-79
2022/01/26 14:18:37;;;;;;;15.77;15.07;;;2.60;82.40;;;;;;4950314;28;20043;-79
2022/01/26 14:20:19;;;;;;;16.37;15.57;;;2.60;82.30;;;;;;4924051;29;20051;-80
2022/01/26 14:23:17;;;;;;;15.40;14.70;;;2.60;82.30;;;;;;4970075;28;20035;-80
2022/01/26 14:25:34;;;;;;;15.70;15.00;;;2.60;82.20;;;;;;4950697;28;20024;-80
2022/01/26 14:28:06;;;;;;;16.80;15.90;;;2.60;82.30;;;;;;4948173;29;20052;-81
2022/01/26 14:30:53;;;;;;;15.93;15.03;;;2.60;82.30;;;;;;4942877;28;20494;-79
2022/01/26 15:29:57;;;;;;;15.47;14.77;;;2.50;82.60;;;;;;4953598;28;20031;-81
2022/01/26 15:33:50;;;;;;;15.17;14.47;;;2.60;82.60;;;;;;4952285;28;20046;-82
2022/01/26 15:44:51;;;;;;;16.60;15.80;;;2.70;82.30;;;;;;4894653;29;20029;-83
2022/01/26 15:50:08;;;;;;;16.97;16.17;;;2.80;82.50;;;;;;4895841;29;20052;-83
2022/01/26 15:52:58;;;;;;;17.03;16.13;;;2.70;82.30;;;;;;4894095;29;20055;-84
2022/01/26 16:06:17;;;;;;;15.50;14.80;;;2.70;82.50;;;;;;4897053;29;20036;-83
2022/01/26 16:38:17;;;;;;;15.50;14.70;;;2.70;82.60;;;;;;4957941;28;20029;-82
2022/01/26 18:05:46;;;;;;;16.87;16.07;;;2.90;82.70;;;;;;4951380;29;20116;-77
2022/01/26 18:50:23;;;;;;;17.70;16.80;;;3.20;82.50;;;;;;4932320;29;20148;-77
2022/01/26 18:52:49;;;;;;;18.37;17.37;;;3.10;82.50;;;;;;4926208;29;20052;-78
2022/01/26 18:55:15;;;;;;;17.00;16.10;;;3.10;82.50;;;;;;4914362;29;20051;-78
2022/01/26 18:57:42;;;;;;;15.80;15.10;;;3.10;82.60;;;;;;4910699;29;20039;-77
2022/01/26 19:00:08;;;;;;;16.90;16.00;;;3.20;82.70;;;;;;4931415;28;20426;-78
2022/01/26 19:02:34;;;;;;;18.93;17.70;;;3.20;82.60;;;;;;4925398;29;20055;-77
2022/01/26 19:05:01;;;;;;;16.20;15.40;;;3.10;82.50;;;;;;4970009;28;20035;-78
2022/01/26 19:07:27;;;;;;;16.63;15.67;;;3.10;82.60;;;;;;4952570;29;20047;-78
2022/01/26 19:09:53;;;;;;;18.50;17.40;;;3.20;82.60;;;;;;4958029;28;20100;-78
2022/01/26 19:12:21;;;;;;;15.87;15.07;;;3.10;82.60;;;;;;4955391;29;20035;-77
2022/01/26 19:14:55;;;;;;;15.73;15.00;;;3.20;82.70;;;;;;4954844;29;20383;-77
2022/01/26 19:17:30;;;;;;;16.73;15.93;;;3.10;82.60;;;;;;4953399;28;20051;-78
2022/01/26 19:25:24;;;;;;;16.95;16.08;;;3.10;82.70;;;;;;4962047;28;20410;-78
2022/01/26 19:44:08;;;;;;;16.50;15.70;;;3.10;82.50;;;;;;4945417;28;20031;-78
2022/01/26 19:47:00;;;;;;;16.17;15.37;;;3.20;82.70;;;;;;4956757;28;20044;-78
2022/01/26 19:52:10;;;;;;;17.23;16.43;;;3.20;82.60;;;;;;4944119;28;20047;-78
2022/01/26 19:54:37;;;;;;;16.67;15.87;;;3.20;82.50;;;;;;4942793;29;20047;-78